createdAt,value
2022-10-01T00:01:13.040Z,100221.75
2022-10-01T00:03:40.809Z,100216.75
2022-10-01T00:06:11.142Z,100216.75
2022-10-01T00:08:40.231Z,100208.31
2022-10-01T00:11:09.473Z,100193.22
2022-10-01T00:13:38.234Z,100189.03
2022-10-01T00:16:08.959Z,100186.41
2022-10-01T00:18:38.024Z,100176.56
2022-10-01T00:21:10.008Z,100180.31
2022-10-01T00:23:38.298Z,100182.47
2022-10-01T00:26:11.204Z,100163.94
2022-10-01T00:28:38.796Z,100160.53
2022-10-01T00:31:09.136Z,100151.00
2022-10-01T00:33:37.317Z,100154.44
2022-10-01T00:36:05.401Z,100132.78
2022-10-01T00:38:33.838Z,100119.91
2022-10-01T00:41:01.548Z,100115.66
2022-10-01T00:43:31.681Z,100095.25
2022-10-01T00:46:05.193Z,100086.22
2022-10-01T00:48:44.696Z,100073.47
2022-10-01T00:51:14.030Z,100074.25
2022-10-01T00:53:42.835Z,100061.00
2022-10-01T00:56:10.434Z,100050.75
2022-10-01T00:58:39.538Z,100058.69
2022-10-01T01:01:07.413Z,100054.19
2022-10-01T01:03:36.530Z,100069.28
2022-10-01T01:06:08.067Z,100052.28
2022-10-01T01:08:35.775Z,100048.56
2022-10-01T01:11:13.108Z,100049.03
2022-10-01T01:13:50.933Z,100045.63
2022-10-01T01:16:24.667Z,100042.22
2022-10-01T01:19:01.018Z,100053.28
2022-10-01T01:21:32.817Z,100039.56
2022-10-01T01:24:39.792Z,100021.66
2022-10-01T01:27:20.377Z,100004.84
2022-10-01T01:29:53.595Z,99990.03
2022-10-01T01:32:27.357Z,99986.63
2022-10-01T01:35:02.210Z,99987.38
2022-10-01T01:37:33.312Z,99983.22
2022-10-01T01:40:03.535Z,99967.00
2022-10-01T01:42:37.176Z,99986.31
2022-10-01T01:45:10.821Z,99946.31
2022-10-01T01:47:41.408Z,99958.94
2022-10-01T01:50:10.940Z,99957.34
2022-10-01T01:52:39.273Z,99955.22
2022-10-01T01:55:08.483Z,99960.50
2022-10-01T01:57:40.168Z,99960.50
2022-10-01T02:00:11.968Z,99977.31
2022-10-01T02:02:41.634Z,99963.63
2022-10-01T02:05:15.604Z,99955.69
2022-10-01T02:08:12.208Z,99956.16
2022-10-01T02:10:54.256Z,99958.78
2022-10-01T02:13:30.950Z,99968.28
2022-10-01T02:16:07.299Z,99963.78
2022-10-01T02:18:42.145Z,99958.47
2022-10-01T02:21:12.141Z,99973.63
2022-10-01T02:23:45.008Z,99962.69
2022-10-01T02:26:17.262Z,99957.41
2022-10-01T02:28:46.917Z,99947.59
2022-10-01T02:31:18.065Z,99964.75
2022-10-01T02:33:48.037Z,99945.88
2022-10-01T02:36:19.161Z,99947.44
2022-10-01T02:38:50.716Z,99950.88
2022-10-01T02:41:23.199Z,99951.34
2022-10-01T02:43:55.895Z,99937.81
2022-10-01T02:46:29.965Z,99944.66
2022-10-01T02:49:00.481Z,99958.34
2022-10-01T02:51:37.197Z,99932.66
2022-10-01T02:54:09.866Z,99956.97
2022-10-01T02:56:56.421Z,99949.81
2022-10-01T02:59:24.157Z,99941.25
2022-10-01T03:01:53.270Z,99947.00
2022-10-01T03:04:20.917Z,99947.00
2022-10-01T03:06:48.551Z,99947.47
2022-10-01T03:09:16.162Z,99938.47
2022-10-01T03:11:43.825Z,99946.56
2022-10-01T03:14:11.741Z,99930.38
2022-10-01T03:16:39.345Z,99920.72
2022-10-01T03:19:08.338Z,99920.41
2022-10-01T03:21:36.312Z,99918.53
2022-10-01T03:24:04.735Z,99908.09
2022-10-01T03:26:33.022Z,99903.56
2022-10-01T03:29:00.677Z,99915.41
2022-10-01T03:31:28.397Z,99902.63
2022-10-01T03:33:57.901Z,99903.09
2022-10-01T03:36:26.997Z,99907.00
2022-10-01T03:38:54.640Z,99895.31
2022-10-01T03:41:22.724Z,99892.06
2022-10-01T03:43:50.135Z,99897.69
2022-10-01T03:46:18.078Z,99905.44
2022-10-01T03:48:45.727Z,99904.38
2022-10-01T03:51:17.787Z,99895.31
2022-10-01T03:53:48.993Z,99896.09
2022-10-01T03:56:17.386Z,99907.63
2022-10-01T03:58:45.038Z,99907.34
2022-10-01T04:01:12.835Z,99900.16
2022-10-01T04:03:41.477Z,99900.31
2022-10-01T04:06:09.141Z,99915.59
2022-10-01T04:08:37.094Z,99916.06
2022-10-01T04:11:06.283Z,99910.44
2022-10-01T04:13:34.591Z,99909.81
2022-10-01T04:16:02.715Z,99913.25
2022-10-01T04:18:30.915Z,99914.50
2022-10-01T04:20:58.838Z,99913.38
2022-10-01T04:23:27.044Z,99922.59
2022-10-01T04:25:54.876Z,99929.13
2022-10-01T04:28:23.873Z,99929.13
2022-10-01T04:31:12.094Z,99925.88
2022-10-01T04:33:39.783Z,99941.44
2022-10-01T04:36:07.656Z,99945.34
2022-10-01T04:38:35.629Z,99940.22
2022-10-01T04:41:03.274Z,99946.28
2022-10-01T04:43:32.229Z,99958.44
2022-10-01T04:45:59.870Z,99954.72
2022-10-01T04:48:27.500Z,99971.09
2022-10-01T04:50:55.077Z,99976.84
2022-10-01T04:53:22.721Z,99977.03
2022-10-01T04:55:50.325Z,99975.63
2022-10-01T04:58:18.619Z,99977.31
2022-10-01T05:00:47.649Z,99986.53
2022-10-01T05:03:15.264Z,99993.41
2022-10-01T05:05:42.874Z,99989.34
2022-10-01T05:08:10.506Z,99982.66
2022-10-01T05:10:38.262Z,99987.63
2022-10-01T05:13:05.910Z,100005.13
2022-10-01T05:15:33.552Z,100004.78
2022-10-01T05:18:02.581Z,100001.03
2022-10-01T05:20:30.392Z,99999.94
2022-10-01T05:22:58.073Z,100012.13
2022-10-01T05:25:25.699Z,100012.88
2022-10-01T05:27:53.389Z,100019.44
2022-10-01T05:30:23.895Z,100022.09
2022-10-01T05:32:56.479Z,100034.28
2022-10-01T05:35:25.837Z,100027.09
2022-10-01T05:37:54.976Z,100044.88
2022-10-01T05:40:24.331Z,100042.69
2022-10-01T05:42:51.967Z,100044.25
2022-10-01T05:45:22.880Z,100049.56
2022-10-01T05:47:58.568Z,100052.97
2022-10-01T05:50:28.709Z,100051.13
2022-10-01T05:52:56.309Z,100051.13
2022-10-01T05:55:24.534Z,100054.88
2022-10-01T05:57:57.363Z,100058.59
2022-10-01T06:00:26.541Z,100067.97
2022-10-01T06:02:54.747Z,100066.44
2022-10-01T06:05:22.941Z,100076.53
2022-10-01T06:07:53.471Z,100065.19
2022-10-01T06:10:22.896Z,100068.13
2022-10-01T06:12:50.860Z,100072.34
2022-10-01T06:15:18.855Z,100075.16
2022-10-01T06:17:46.871Z,100073.59
2022-10-01T06:20:14.834Z,100081.09
2022-10-01T06:22:45.056Z,100080.59
2022-10-01T06:25:15.169Z,100081.22
2022-10-01T06:27:43.563Z,100079.97
2022-10-01T06:30:12.181Z,100082.94
2022-10-01T06:32:39.760Z,100083.38
2022-10-01T06:35:07.732Z,100079.91
2022-10-01T06:37:37.543Z,100081.94
2022-10-01T06:40:05.951Z,100086.19
2022-10-01T06:42:34.904Z,100089.28
2022-10-01T06:45:02.559Z,100082.25
2022-10-01T06:47:30.244Z,100082.22
2022-10-01T06:49:59.368Z,100089.84
2022-10-01T06:52:44.612Z,100088.84
2022-10-01T06:55:16.483Z,100094.72
2022-10-01T06:57:45.996Z,100099.72
2022-10-01T07:00:14.953Z,100102.50
2022-10-01T07:02:42.978Z,100101.34
2022-10-01T07:05:10.639Z,100099.41
2022-10-01T07:07:39.264Z,100094.38
2022-10-01T07:10:09.417Z,100108.91
2022-10-01T07:12:37.700Z,100114.16
2022-10-01T07:15:07.630Z,100108.28
2022-10-01T07:17:35.701Z,100122.50
2022-10-01T07:20:03.328Z,100130.09
2022-10-01T07:22:30.935Z,100129.91
2022-10-01T07:24:58.566Z,100137.88
2022-10-01T07:27:26.456Z,100146.13
2022-10-01T07:29:54.150Z,100146.69
2022-10-01T07:32:23.129Z,100153.84
2022-10-01T07:34:51.566Z,100163.06
2022-10-01T07:37:19.440Z,100156.31
2022-10-01T07:39:46.937Z,100166.78
2022-10-01T07:42:14.548Z,100165.31
2022-10-01T07:44:42.204Z,100159.97
2022-10-01T07:47:10.017Z,100161.00
2022-10-01T07:49:39.005Z,100169.16
2022-10-01T07:52:10.932Z,100165.09
2022-10-01T07:54:40.797Z,100171.03
2022-10-01T07:57:08.474Z,100182.25
2022-10-01T07:59:36.212Z,100176.47
2022-10-01T08:02:03.906Z,100181.13
2022-10-01T08:04:49.269Z,100177.50
2022-10-01T08:07:18.277Z,100174.84
2022-10-01T08:09:45.894Z,100191.63
2022-10-01T08:12:13.484Z,100184.91
2022-10-01T08:14:41.100Z,100188.66
2022-10-01T08:17:08.703Z,100195.50
2022-10-01T08:19:36.397Z,100194.47
2022-10-01T08:22:04.061Z,100195.00
2022-10-01T08:24:34.706Z,100208.66
2022-10-01T08:27:02.374Z,100203.66
2022-10-01T08:29:29.996Z,100210.75
2022-10-01T08:31:58.503Z,100216.94
2022-10-01T08:34:26.140Z,100215.56
2022-10-01T08:36:53.808Z,100222.00
2022-10-01T08:39:21.470Z,100216.19
2022-10-01T08:41:59.243Z,100223.09
2022-10-01T08:44:31.328Z,100220.34
2022-10-01T08:47:04.864Z,100231.03
2022-10-01T08:49:40.104Z,100226.53
2022-10-01T08:52:15.046Z,100239.13
2022-10-01T08:54:47.799Z,100239.63
2022-10-01T08:57:20.570Z,100245.41
2022-10-01T08:59:51.867Z,100235.31
2022-10-01T09:02:22.471Z,100242.53
2022-10-01T09:04:56.755Z,100246.66
2022-10-01T09:07:46.374Z,100257.94
2022-10-01T09:10:35.765Z,100251.81
2022-10-01T09:13:30.185Z,100259.94
2022-10-01T09:16:06.759Z,100259.38
2022-10-01T09:19:03.668Z,100268.09
2022-10-01T09:21:47.267Z,100263.59
2022-10-01T09:24:17.062Z,100264.72
2022-10-01T09:26:49.084Z,100271.13
2022-10-01T09:29:29.502Z,100280.03
2022-10-01T09:31:59.680Z,100280.25
2022-10-01T09:34:34.961Z,100282.47
2022-10-01T09:37:14.773Z,100283.22
2022-10-01T09:39:51.232Z,100276.50
2022-10-01T09:42:19.361Z,100270.41
2022-10-01T09:44:48.329Z,100266.34
2022-10-01T09:47:19.155Z,100290.69
2022-10-01T09:49:47.169Z,100301.69
2022-10-01T09:52:20.193Z,100290.69
2022-10-01T09:54:52.057Z,100303.41
2022-10-01T09:57:25.802Z,100295.84
2022-10-01T10:00:03.643Z,100297.50
2022-10-01T10:02:34.117Z,100291.72
2022-10-01T10:05:02.602Z,100307.25
2022-10-01T10:07:32.498Z,100313.97
2022-10-01T10:10:10.067Z,100327.91
2022-10-01T10:12:38.023Z,100327.88
2022-10-01T10:15:16.463Z,100329.84
2022-10-01T10:17:46.369Z,100339.75
2022-10-01T10:20:25.671Z,100348.59
2022-10-01T10:22:53.361Z,100353.56
2022-10-01T10:25:22.735Z,100353.66
2022-10-01T10:27:55.580Z,100356.44
2022-10-01T10:30:26.246Z,100358.78
2022-10-01T10:32:55.489Z,100368.25
2022-10-01T10:35:26.509Z,100365.28
2022-10-01T10:37:57.212Z,100376.34
2022-10-01T10:40:29.661Z,100386.91
2022-10-01T10:42:59.642Z,100386.38
2022-10-01T10:45:33.216Z,100387.81
2022-10-01T10:48:04.547Z,100377.44
2022-10-01T10:50:34.922Z,100384.69
2022-10-01T10:53:13.526Z,100396.16
2022-10-01T10:55:41.253Z,100402.91
2022-10-01T10:58:12.051Z,100410.56
2022-10-01T11:00:49.990Z,100412.78
2022-10-01T11:03:21.279Z,100413.28
2022-10-01T11:05:51.589Z,100417.94
2022-10-01T11:08:22.531Z,100418.44
2022-10-01T11:11:03.864Z,100421.44
2022-10-01T11:13:46.565Z,100430.69
2022-10-01T11:16:30.535Z,100433.53
2022-10-01T11:19:16.109Z,100440.66
2022-10-01T11:21:56.512Z,100445.97
2022-10-01T11:24:40.599Z,100458.19
2022-10-01T11:27:16.775Z,100456.56
2022-10-01T11:29:55.750Z,100460.06
2022-10-01T11:32:35.051Z,100469.84
2022-10-01T11:35:19.511Z,100478.78
2022-10-01T11:38:01.638Z,100476.09
2022-10-01T11:40:34.243Z,100477.84
2022-10-01T11:43:06.556Z,100477.72
2022-10-01T11:45:39.233Z,100482.84
2022-10-01T11:48:13.546Z,100497.59
2022-10-01T11:50:43.672Z,100490.22
2022-10-01T11:53:16.251Z,100502.25
2022-10-01T11:56:04.505Z,100508.91
2022-10-01T11:58:54.009Z,100509.00
2022-10-01T12:01:38.899Z,100513.34
2022-10-01T12:04:18.332Z,100506.63
2022-10-01T12:06:55.271Z,100520.09
2022-10-01T12:09:30.256Z,100529.38
2022-10-01T12:12:02.208Z,100529.53
2022-10-01T12:14:34.794Z,100544.25
2022-10-01T12:17:12.157Z,100538.31
2022-10-01T12:19:46.498Z,100546.47
2022-10-01T12:22:16.415Z,100542.06
2022-10-01T12:24:45.629Z,100537.72
2022-10-01T12:27:30.285Z,100538.75
2022-10-01T12:30:04.969Z,100538.09
2022-10-01T12:32:44.788Z,100549.03
2022-10-01T12:35:26.252Z,100548.50
2022-10-01T12:38:08.986Z,100555.91
2022-10-01T12:40:47.043Z,100561.31
2022-10-01T12:43:47.595Z,100555.34
2022-10-01T12:46:25.824Z,100561.09
2022-10-01T12:49:02.192Z,100567.00
2022-10-01T12:51:39.917Z,100576.03
2022-10-01T12:54:23.975Z,100583.22
2022-10-01T12:57:00.416Z,100592.09
2022-10-01T12:59:50.092Z,100594.03
2022-10-01T13:02:39.374Z,100600.31
2022-10-01T13:05:20.994Z,100605.72
2022-10-01T13:08:25.381Z,100596.53
2022-10-01T13:11:05.437Z,100597.94
2022-10-01T13:13:34.650Z,100594.50
2022-10-01T13:16:08.729Z,100604.94
2022-10-01T13:18:46.942Z,100610.25
2022-10-01T13:21:23.131Z,100622.94
2022-10-01T13:23:59.789Z,100618.09
2022-10-01T13:26:33.311Z,100622.44
2022-10-01T13:29:13.996Z,100617.56
2022-10-01T13:31:56.813Z,100623.47
2022-10-01T13:34:36.561Z,100639.94
2022-10-01T13:37:15.844Z,100636.31
2022-10-01T13:39:45.256Z,100644.91
2022-10-01T13:42:24.189Z,100640.88
2022-10-01T13:44:57.799Z,100651.09
2022-10-01T13:47:26.658Z,100667.72
2022-10-01T13:49:56.842Z,100656.88
2022-10-01T13:52:25.200Z,100659.13
2022-10-01T13:54:56.367Z,100667.69
2022-10-01T13:57:30.177Z,100673.09
2022-10-01T14:00:04.157Z,100672.75
2022-10-01T14:02:35.608Z,100674.63
2022-10-01T14:05:24.969Z,100679.13
2022-10-01T14:07:57.637Z,100685.94
2022-10-01T14:10:34.925Z,100685.31
2022-10-01T14:13:22.049Z,100681.56
2022-10-01T14:16:03.356Z,100694.28
2022-10-01T14:18:35.430Z,100693.69
2022-10-01T14:21:14.501Z,100698.44
2022-10-01T14:23:52.299Z,100699.72
2022-10-01T14:26:28.190Z,100704.09
2022-10-01T14:29:04.944Z,100703.66
2022-10-01T14:31:50.788Z,100712.38
2022-10-01T14:34:43.897Z,100717.59
2022-10-01T14:37:17.287Z,100730.31
2022-10-01T14:39:45.451Z,100726.34
2022-10-01T14:42:17.995Z,100729.16
2022-10-01T14:44:47.233Z,100719.69
2022-10-01T14:47:19.391Z,100733.94
2022-10-01T14:49:47.170Z,100740.34
2022-10-01T14:52:24.213Z,100739.47
2022-10-01T14:54:59.503Z,100728.81
2022-10-01T14:57:33.014Z,100738.06
2022-10-01T15:00:06.018Z,100735.47
2022-10-01T15:02:33.717Z,100754.44
2022-10-01T15:05:01.478Z,100750.53
2022-10-01T15:07:33.906Z,100766.09
2022-10-01T15:10:09.284Z,100773.66
2022-10-01T15:12:42.311Z,100766.72
2022-10-01T15:15:19.436Z,100770.53
2022-10-01T15:17:47.837Z,100765.69
2022-10-01T15:20:16.871Z,100758.88
2022-10-01T15:22:48.018Z,100772.38
2022-10-01T15:25:21.650Z,100767.00
2022-10-01T15:27:54.062Z,100779.34
2022-10-01T15:30:22.014Z,100775.88
2022-10-01T15:32:51.206Z,100787.75
2022-10-01T15:35:22.024Z,100787.44
2022-10-01T15:37:51.596Z,100785.06
2022-10-01T15:40:27.181Z,100794.19
2022-10-01T15:43:27.611Z,100795.28
2022-10-01T15:46:21.151Z,100805.00
2022-10-01T15:49:09.185Z,100815.13
2022-10-01T15:51:37.436Z,100820.47
2022-10-01T15:54:09.948Z,100824.13
2022-10-01T15:56:41.656Z,100820.75
2022-10-01T15:59:16.900Z,100826.22
2022-10-01T16:01:45.972Z,100836.25
2022-10-01T16:04:15.291Z,100830.53
2022-10-01T16:06:45.978Z,100832.00
2022-10-01T16:09:18.056Z,100844.28
2022-10-01T16:11:53.990Z,100841.94
2022-10-01T16:14:31.774Z,100844.66
2022-10-01T16:17:27.887Z,100849.59
2022-10-01T16:19:57.809Z,100852.53
2022-10-01T16:22:27.582Z,100853.13
2022-10-01T16:24:57.643Z,100855.72
2022-10-01T16:27:28.044Z,100862.16
2022-10-01T16:30:04.773Z,100861.00
2022-10-01T16:32:34.886Z,100856.56
2022-10-01T16:35:20.722Z,100870.34
2022-10-01T16:37:50.161Z,100876.97
2022-10-01T16:40:18.216Z,100874.41
2022-10-01T16:42:46.766Z,100878.44
2022-10-01T16:45:16.936Z,100883.75
2022-10-01T16:47:46.691Z,100889.47
2022-10-01T16:50:16.427Z,100886.78
2022-10-01T16:52:44.164Z,100884.56
2022-10-01T16:55:18.164Z,100899.03
2022-10-01T16:57:45.916Z,100901.47
2022-10-01T17:00:15.211Z,100906.50
2022-10-01T17:02:42.898Z,100914.41
2022-10-01T17:05:17.199Z,100917.34
2022-10-01T17:07:45.608Z,100923.03
2022-10-01T17:10:13.920Z,100928.13
2022-10-01T17:12:41.841Z,100930.56
2022-10-01T17:15:13.781Z,100930.50
2022-10-01T17:17:41.372Z,100928.22
2022-10-01T17:20:09.837Z,100927.03
2022-10-01T17:22:39.232Z,100927.56
2022-10-01T17:25:08.169Z,100928.22
2022-10-01T17:27:35.781Z,100936.09
2022-10-01T17:30:03.518Z,100935.81
2022-10-01T17:32:33.956Z,100935.09
2022-10-01T17:35:01.585Z,100939.53
2022-10-01T17:37:29.187Z,100941.31
2022-10-01T17:39:58.197Z,100946.25
2022-10-01T17:42:25.912Z,100949.72
2022-10-01T17:44:54.655Z,100960.78
2022-10-01T17:47:22.261Z,100968.97
2022-10-01T17:49:49.831Z,100962.69
2022-10-01T17:52:18.971Z,100973.88
2022-10-01T17:54:46.773Z,100972.66
2022-10-01T17:57:15.615Z,100981.78
2022-10-01T17:59:43.274Z,100987.59
2022-10-01T18:02:36.462Z,100987.13
2022-10-01T18:05:00.123Z,100989.34
2022-10-01T18:07:27.758Z,100992.00
2022-10-01T18:09:55.361Z,100995.31
2022-10-01T18:12:24.385Z,100995.94
2022-10-01T18:14:51.986Z,101003.03
2022-10-01T18:17:19.589Z,101012.72
2022-10-01T18:19:53.437Z,101015.53
2022-10-01T18:22:22.074Z,101019.78
2022-10-01T18:24:49.887Z,101022.44
2022-10-01T18:27:17.561Z,101031.81
2022-10-01T18:29:46.489Z,101034.47
2022-10-01T18:32:19.942Z,101040.88
2022-10-01T18:34:54.315Z,101041.59
2022-10-01T18:37:33.947Z,101047.72
2022-10-01T18:40:09.409Z,101046.25
2022-10-01T18:42:46.943Z,101054.41
2022-10-01T18:45:18.738Z,101069.56
2022-10-01T18:47:57.994Z,101057.78
2022-10-01T18:50:34.949Z,101070.13
2022-10-01T18:53:24.774Z,101070.06
2022-10-01T18:56:19.581Z,101073.94
2022-10-01T18:58:53.513Z,101073.09
2022-10-01T19:01:30.808Z,101067.41
2022-10-01T19:04:15.324Z,101075.22
2022-10-01T19:06:56.311Z,101077.72
2022-10-01T19:09:33.166Z,101081.44
2022-10-01T19:12:15.425Z,101082.53
2022-10-01T19:14:56.869Z,101089.53
2022-10-01T19:17:43.863Z,101089.38
2022-10-01T19:20:23.464Z,101088.38
2022-10-01T19:23:04.327Z,101099.81
2022-10-01T19:25:37.383Z,101097.97
2022-10-01T19:28:19.737Z,101098.44
2022-10-01T19:31:04.141Z,101099.41
2022-10-01T19:33:39.170Z,101104.44
2022-10-01T19:36:10.385Z,101108.66
2022-10-01T19:38:40.476Z,101108.66
2022-10-01T19:41:15.248Z,101119.50
2022-10-01T19:43:48.870Z,101117.66
2022-10-01T19:46:22.827Z,101113.41
2022-10-01T19:48:57.120Z,101117.44
2022-10-01T19:51:30.172Z,101119.94
2022-10-01T19:54:01.120Z,101120.53
2022-10-01T19:56:31.351Z,101127.25
2022-10-01T19:59:01.809Z,101126.44
2022-10-01T20:01:44.343Z,101125.47
2022-10-01T20:04:26.499Z,101128.25
2022-10-01T20:06:58.446Z,101129.94
2022-10-01T20:09:29.222Z,101144.44
2022-10-01T20:12:05.381Z,101148.28
2022-10-01T20:15:05.817Z,101153.72
2022-10-01T20:17:50.765Z,101153.81
2022-10-01T20:20:25.198Z,101152.34
2022-10-01T20:23:08.554Z,101152.16
2022-10-01T20:25:46.677Z,101156.97
2022-10-01T20:28:20.762Z,101163.69
2022-10-01T20:30:58.577Z,101156.00
2022-10-01T20:33:32.590Z,101165.38
2022-10-01T20:36:11.988Z,101173.13
2022-10-01T20:38:44.593Z,101167.63
2022-10-01T20:41:15.796Z,101170.88
2022-10-01T20:43:49.352Z,101171.44
2022-10-01T20:46:22.670Z,101172.06
2022-10-01T20:48:54.488Z,101179.03
2022-10-01T20:51:32.155Z,101175.41
2022-10-01T20:54:06.661Z,101186.59
2022-10-01T20:56:39.884Z,101179.25
2022-10-01T20:59:14.234Z,101182.16
2022-10-01T21:01:50.131Z,101188.81
2022-10-01T21:04:21.794Z,101190.22
2022-10-01T21:06:54.999Z,101194.53
2022-10-01T21:09:27.827Z,101182.63
2022-10-01T21:11:59.442Z,101191.97
2022-10-01T21:14:31.768Z,101192.56
2022-10-01T21:17:14.572Z,101189.41
2022-10-01T21:20:05.939Z,101189.69
2022-10-01T21:22:51.850Z,101195.00
2022-10-01T21:25:29.156Z,101191.84
2022-10-01T21:28:10.348Z,101194.00
2022-10-01T21:30:52.947Z,101196.19
2022-10-01T21:33:26.980Z,101193.03
2022-10-01T21:35:59.739Z,101192.81
2022-10-01T21:38:32.773Z,101194.19
2022-10-01T21:41:24.126Z,101197.13
2022-10-01T21:44:11.845Z,101184.72
2022-10-01T21:46:43.484Z,101188.44
2022-10-01T21:49:21.357Z,101203.59
2022-10-01T21:52:00.038Z,101197.50
2022-10-01T21:54:46.013Z,101198.56
2022-10-01T21:57:34.055Z,101191.69
2022-10-01T22:00:17.725Z,101191.97
2022-10-01T22:02:56.959Z,101193.56
2022-10-01T22:05:32.981Z,101199.69
2022-10-01T22:08:14.518Z,101207.13
2022-10-01T22:10:46.902Z,101210.88
2022-10-01T22:13:18.471Z,101212.44
2022-10-01T22:15:48.235Z,101207.41
2022-10-01T22:18:21.558Z,101212.72
2022-10-01T22:20:50.070Z,101216.19
2022-10-01T22:23:19.371Z,101223.34
2022-10-01T22:25:54.382Z,101222.00
2022-10-01T22:28:26.873Z,101230.75
2022-10-01T22:30:58.088Z,101229.38
2022-10-01T22:33:32.256Z,101230.38
2022-10-01T22:36:06.608Z,101234.03
2022-10-01T22:38:40.575Z,101235.03
2022-10-01T22:41:14.772Z,101240.25
2022-10-01T22:43:43.076Z,101260.38
2022-10-01T22:46:43.134Z,101262.16
2022-10-01T22:49:27.589Z,101266.03
2022-10-01T22:52:10.191Z,101266.97
2022-10-01T22:54:49.760Z,101262.06
2022-10-01T22:57:30.839Z,101263.28
2022-10-01T23:00:04.882Z,101249.09
2022-10-01T23:02:38.591Z,101258.34
2022-10-01T23:05:15.749Z,101261.50
2022-10-01T23:07:50.714Z,101242.88
2022-10-01T23:10:25.625Z,101245.56
2022-10-01T23:13:05.320Z,101251.63
2022-10-01T23:15:41.468Z,101255.88
2022-10-01T23:18:24.682Z,101253.22
2022-10-01T23:21:08.261Z,101263.84
2022-10-01T23:23:36.064Z,101264.66
2022-10-01T23:26:19.368Z,101270.78
2022-10-01T23:29:01.319Z,101266.81
2022-10-01T23:31:35.664Z,101263.69
2022-10-01T23:34:19.692Z,101271.94
2022-10-01T23:36:50.038Z,101279.41
2022-10-01T23:39:42.038Z,101278.13
2022-10-01T23:42:27.005Z,101279.50
2022-10-01T23:45:05.941Z,101275.53
2022-10-01T23:47:40.943Z,101288.66
2022-10-01T23:50:20.881Z,101300.66
2022-10-01T23:52:58.465Z,101283.41
2022-10-01T23:56:10.466Z,101282.91
2022-10-01T23:58:46.123Z,101291.44
